AIRPORT METAR

METAR FOR LIEE
ADDS - METARS form results

(1247 UTC 08 August 2022)
Data provider http://aviationweather.gov/metar/data/
 
METAR text: LIEE 081220Z 33011KT 300V010 CAVOK 37/10 Q1013
Conditions at: LIEE (CAGLIARI/ELMAS(A, IT) observed 1220 UTC 08 August 2022
Temperature: 37.0°C (99°F)
Dewpoint: 10.0°C (50°F) [RH = 20%]
Pressure (altimeter): 29.91 inches Hg (1013.0 mb)
Winds: from the NNW (330 degrees) at 13 MPH (11 knots; 5.7 m/s)
Visibility: 6 or more miles (10+ km)
Ceiling: ceiling and visibility are OK
Clouds: unknown
Weather: no significant weather observed at this time

METAR text: LIEE 081150Z 34011KT 310V030 CAVOK 36/10 Q1013
Conditions at: LIEE (CAGLIARI/ELMAS(A, IT) observed 1150 UTC 08 August 2022
Temperature: 36.0°C (97°F)
Dewpoint: 10.0°C (50°F) [RH = 21%]
Pressure (altimeter): 29.91 inches Hg (1013.0 mb)
Winds: from the NNW (340 degrees) at 13 MPH (11 knots; 5.7 m/s)
Visibility: 6 or more miles (10+ km)
Ceiling: ceiling and visibility are OK
Clouds: unknown
Weather: no significant weather observed at this time

Forecast for: LIEE (CAGLIARI/ELMAS(A, IT)
Text: TAF LIEE 081100Z 0812/0912 17012KT 9999 FEW030
Forecast period: 1200 to 1700 UTC 08 August 2022
Forecast type: FROM: standard forecast or significant change
Winds: from the S (170 degrees) at 14 MPH (12 knots; 6.2 m/s)
Visibility: 6 or more miles (10+ km)
Ceiling: at least 12,000 feet AGL
Clouds: few clouds at 3000 feet AGL
Weather: no significant weather forecast for this period
Text: BECMG 0817/0819 34008KT
Forecast period: 1700 UTC 08 August 2022 to 0800 UTC 09 August 2022
Forecast type: BECOMING: Conditions expected to become as follows by 1900 UTC 08 August 2022
Winds: from the NNW (340 degrees) at 9 MPH (8 knots; 4.1 m/s)
Visibility: 6 or more miles (10+ km)
Ceiling: at least 12,000 feet AGL
Clouds: few clouds at 3000 feet AGL
Weather: no significant weather forecast for this period
Text: BECMG 0908/0910 17013KT
Forecast period: 0800 to 1200 UTC 09 August 2022
Forecast type: BECOMING: Conditions expected to become as follows by 1000 UTC 09 August 2022
Winds: from the S (170 degrees) at 15 MPH (13 knots; 6.7 m/s)
Visibility: 6 or more miles (10+ km)
Ceiling: at least 12,000 feet AGL
Clouds: few clouds at 3000 feet AGL
Weather: no significant weather forecast for this period

AIRPORT MAP

 RUNWAY INFORMATION
Runway 14 Runway length 9196 ft Runway width 148 ft
Runway elevation 9 ft Runway displaced threshold 0 ft Runway heading 138
Runway 32 Runway length 9196 ft Runway width 148 ft
Runway elevation 4 ft Runway displaced threshold 0 ft Runway heading 318

 AIRPORT FREQUENCIES
Type APP Name CAGLIARI A Frequency 118.75 MHZ
Type GND Name Elmas GND Frequency 125.425 MHZ
Type MISC Name SAR Frequency 123.1 MHZ
Type TWR Name TWR Frequency 120.6 MHZ

 AIRPORT NEAR NAVIGATION AIDS
Type VOR-DME Name Cagliari Frequency 113400 KHZ
Type NDB Name Cagliari Frequency 371 KHZ



© 2022 - Royal Sky Service, All Right Reserved.